Time;durP1;ratioP1;P1;durP2;ratioP2;P2;SDS_P1;SDS_P2;PMS_P1;PMS_P2;Temp;Humidity;BMP_temperature;BMP_pressure;BME280_temperature;BME280_humidity;BME280_pressure;Samples;Min_cycle;Max_cycle;Signal;HPM_P1;HPM_P2
2021/09/16 00:00:29;;;;;;;;;;;;;;;23.69;51.99;100982.75;5053439;28;1073;-37
2021/09/16 00:03:01;;;;;;;;;;;;;;;23.68;51.38;100981.06;5050670;28;1775;-37
2021/09/16 00:05:29;;;;;;;;;;;;;;;23.66;51.49;100980.38;5053557;28;1395;-38
2021/09/16 00:07:59;;;;;;;;;;;;;;;23.64;51.67;100985.94;5052429;28;1678;-38
2021/09/16 00:10:29;;;;;;;;;;;;;;;23.64;51.20;100991.34;5053456;28;1902;-37
2021/09/16 00:12:55;;;;;;;;;;;;;;;23.63;51.28;100985.09;5045304;28;1481;-38
2021/09/16 00:15:24;;;;;;;;;;;;;;;23.62;51.10;100982.56;5052966;28;1400;-38
2021/09/16 00:17:53;;;;;;;;;;;;;;;23.62;51.16;100982.56;5052463;28;1707;-37
2021/09/16 00:20:24;;;;;;;;;;;;;;;23.64;51.09;100999.44;5056173;28;1640;-37
2021/09/16 00:22:50;;;;;;;;;;;;;;;23.61;51.15;100984.38;5056962;28;1681;-37
2021/09/16 00:25:17;;;;;;;;;;;;;;;23.63;51.58;100978.81;5058183;28;1542;-37
2021/09/16 00:27:44;;;;;;;;;;;;;;;23.62;51.07;100983.38;5056672;28;1447;-38
2021/09/16 00:30:11;;;;;;;;;;;;;;;23.61;51.22;100986.25;5056326;28;1906;-38
2021/09/16 00:32:42;;;;;;;;;;;;;;;23.60;51.23;100985.41;5053730;28;1566;-37
2021/09/16 00:35:09;;;;;;;;;;;;;;;23.62;51.32;100966.34;5051566;28;1630;-38
2021/09/16 00:37:42;;;;;;;;;;;;;;;23.60;51.33;100974.59;5057575;28;1421;-37
2021/09/16 00:40:10;;;;;;;;;;;;;;;23.63;51.43;100970.72;5056888;28;1059;-37
2021/09/16 00:42:39;;;;;;;;;;;;;;;23.61;51.21;100976.28;5056803;28;1840;-37
2021/09/16 00:45:07;;;;;;;;;;;;;;;23.61;50.88;100975.44;5057027;28;1346;-38
2021/09/16 00:47:38;;;;;;;;;;;;;;;23.59;50.84;100967.50;5057128;28;1251;-37
2021/09/16 00:50:05;;;;;;;;;;;;;;;23.57;51.04;100964.13;5057183;28;1902;-37
2021/09/16 00:52:36;;;;;;;;;;;;;;;23.62;50.78;100964.50;5055798;28;1753;-37
2021/09/16 00:55:16;;;;;;;;;;;;;;;23.59;50.84;100964.78;5057213;28;1588;-38
2021/09/16 00:57:58;;;;;;;;;;;;;;;23.58;50.92;100968.53;5040336;28;1713;-37
2021/09/16 01:00:33;;;;;;;;;;;;;;;23.58;50.58;100963.13;5042553;28;1554;-37
2021/09/16 01:03:00;;;;;;;;;;;;;;;23.59;50.61;100961.25;5052260;28;1520;-38
2021/09/16 01:05:27;;;;;;;;;;;;;;;23.59;51.10;100955.84;5056923;28;1708;-37
2021/09/16 01:07:54;;;;;;;;;;;;;;;23.60;51.54;100968.38;5055911;28;1815;-37
2021/09/16 01:10:24;;;;;;;;;;;;;;;23.59;50.66;100969.34;5053190;28;1977;-37
2021/09/16 01:12:53;;;;;;;;;;;;;;;23.58;50.73;100964.97;5055975;28;1855;-38
2021/09/16 01:15:22;;;;;;;;;;;;;;;23.58;50.98;100955.03;5056022;28;1676;-37
2021/09/16 01:17:49;;;;;;;;;;;;;;;23.56;50.85;100975.94;5058097;28;1432;-38
2021/09/16 01:20:20;;;;;;;;;;;;;;;23.56;50.80;100964.31;5063486;28;1729;-37
2021/09/16 01:22:51;;;;;;;;;;;;;;;23.55;50.87;100968.00;5056323;28;2023;-37
2021/09/16 01:25:20;;;;;;;;;;;;;;;23.55;50.89;100965.28;5056536;28;1640;-37
2021/09/16 01:27:46;;;;;;;;;;;;;;;23.57;51.00;100963.28;5055293;28;1591;-37
2021/09/16 01:30:13;;;;;;;;;;;;;;;23.55;51.00;100966.13;5057670;28;1906;-37
2021/09/16 01:32:41;;;;;;;;;;;;;;;23.57;51.29;100953.31;5051333;28;1525;-38
2021/09/16 01:35:08;;;;;;;;;;;;;;;23.56;50.94;100969.69;5044046;28;1865;-37
2021/09/16 01:37:38;;;;;;;;;;;;;;;23.54;51.15;100953.66;5042196;28;1734;-38
2021/09/16 01:40:09;;;;;;;;;;;;;;;23.55;50.78;100966.13;5050421;28;1383;-37
2021/09/16 01:42:40;;;;;;;;;;;;;;;23.55;50.89;100970.69;5049872;28;1289;-37
2021/09/16 01:45:14;;;;;;;;;;;;;;;23.56;50.88;100965.13;5056106;28;1452;-37
2021/09/16 01:47:42;;;;;;;;;;;;;;;23.58;51.94;100960.41;5058718;28;1679;-37
2021/09/16 01:50:09;;;;;;;;;;;;;;;23.55;51.06;100962.59;5055182;28;1910;-37
2021/09/16 01:52:38;;;;;;;;;;;;;;;23.54;51.62;100953.66;5055186;28;1799;-37
2021/09/16 01:55:18;;;;;;;;;;;;;;;23.59;50.69;100967.50;5051231;28;1585;-37
2021/09/16 01:57:45;;;;;;;;;;;;;;;23.58;51.79;100975.78;5053482;28;1700;-37
2021/09/16 02:02:47;;;;;;;;;;;;;;;23.54;50.81;100975.25;5074438;22;1721;-36
2021/09/16 02:05:15;;;;;;;;;;;;;;;23.51;50.69;100980.97;5053787;28;1489;-36
2021/09/16 02:07:44;;;;;;;;;;;;;;;23.50;50.46;100984.69;5053548;28;1788;-37
2021/09/16 02:10:17;;;;;;;;;;;;;;;23.50;50.59;100967.66;5053799;28;1902;-37
2021/09/16 02:12:52;;;;;;;;;;;;;;;23.49;50.84;100982.13;5053706;28;1848;-36
2021/09/16 02:15:21;;;;;;;;;;;;;;;23.49;50.70;100971.34;5052975;28;1799;-36
2021/09/16 02:17:51;;;;;;;;;;;;;;;23.49;50.62;100991.06;5044640;28;1815;-36
2021/09/16 02:20:20;;;;;;;;;;;;;;;23.51;50.84;100997.16;5037443;28;1726;-36
2021/09/16 02:22:55;;;;;;;;;;;;;;;23.51;50.17;100989.06;5034233;28;1297;-36
2021/09/16 02:25:24;;;;;;;;;;;;;;;23.49;50.51;100968.63;5053897;28;1066;-36
2021/09/16 02:27:54;;;;;;;;;;;;;;;23.51;50.36;100980.97;5054307;28;1949;-36
2021/09/16 02:30:23;;;;;;;;;;;;;;;23.49;49.80;100984.84;5053267;28;1906;-36
2021/09/16 02:35:41;;;;;;;;;;;;;;;23.49;50.38;100985.66;5045436;28;3365;-35
2021/09/16 02:38:11;;;;;;;;;;;;;;;23.49;50.44;100974.88;5053038;28;1743;-36
2021/09/16 02:40:51;;;;;;;;;;;;;;;23.55;51.73;100994.97;5053516;28;1507;-36
2021/09/16 02:43:18;;;;;;;;;;;;;;;23.53;50.75;100978.09;5052018;28;1493;-36
2021/09/16 02:45:45;;;;;;;;;;;;;;;23.50;50.44;100984.69;5052497;28;1410;-36
2021/09/16 02:48:13;;;;;;;;;;;;;;;23.51;50.19;100985.50;5054409;28;1800;-37
2021/09/16 02:50:40;;;;;;;;;;;;;;;23.48;51.99;100996.66;5046347;28;1910;-36
2021/09/16 02:53:16;;;;;;;;;;;;;;;23.47;51.60;100992.25;5042572;28;1729;-36
2021/09/16 02:55:51;;;;;;;;;;;;;;;23.46;51.72;100987.84;5052436;28;1679;-37
2021/09/16 02:58:21;;;;;;;;;;;;;;;23.48;51.84;100986.69;5056073;28;1581;-36
2021/09/16 03:00:48;;;;;;;;;;;;;;;23.48;50.97;100980.44;5043171;28;1682;-36
2021/09/16 03:03:36;;;;;;;;;;;;;;;23.50;50.75;100984.69;5043312;28;1950;-37
2021/09/16 03:06:03;;;;;;;;;;;;;;;23.50;50.43;101002.72;5040142;28;1377;-36
2021/09/16 03:08:38;;;;;;;;;;;;;;;23.46;51.02;100979.72;5045010;28;1304;-36
2021/09/16 03:11:08;;;;;;;;;;;;;;;23.48;50.93;100992.09;5042802;28;1906;-37
2021/09/16 03:13:37;;;;;;;;;;;;;;;23.45;50.26;100992.41;5053190;28;1532;-36
2021/09/16 03:16:18;;;;;;;;;;;;;;;23.46;49.90;100993.22;5053781;28;2212;-37
2021/09/16 03:18:45;;;;;;;;;;;;;;;23.39;50.07;100999.28;5052572;28;1223;-40
2021/09/16 03:21:15;;;;;;;;;;;;;;;23.40;50.78;101000.13;5053597;28;1868;-36
2021/09/16 03:23:45;;;;;;;;;;;;;;;23.38;50.19;101000.28;5049794;28;1548;-36
2021/09/16 03:26:24;;;;;;;;;;;;;;;23.37;49.91;101014.78;5044320;28;1663;-36
2021/09/16 03:28:54;;;;;;;;;;;;;;;23.36;49.96;101014.97;5050930;28;1757;-36
2021/09/16 03:31:21;;;;;;;;;;;;;;;23.31;49.98;101007.31;5052497;28;1906;-38
2021/09/16 03:33:48;;;;;;;;;;;;;;;23.30;49.77;100997.53;5052210;28;1229;-36
2021/09/16 03:36:17;;;;;;;;;;;;;;;23.29;49.76;100998.53;5052636;28;1963;-36
2021/09/16 03:38:48;;;;;;;;;;;;;;;23.28;50.13;100999.56;5053230;28;1507;-36
2021/09/16 03:41:16;;;;;;;;;;;;;;;23.29;49.89;101003.94;5044510;28;1735;-36
2021/09/16 03:43:46;;;;;;;;;;;;;;;23.31;49.89;101007.31;5052258;28;1707;-36
2021/09/16 03:46:15;;;;;;;;;;;;;;;23.28;49.81;101009.47;5052080;28;1643;-36
2021/09/16 03:48:43;;;;;;;;;;;;;;;23.27;49.83;101008.63;5051830;28;1347;-36
2021/09/16 03:51:13;;;;;;;;;;;;;;;23.28;49.98;101007.66;5052006;28;1980;-37
2021/09/16 03:53:42;;;;;;;;;;;;;;;23.27;49.64;101000.53;5051711;28;1858;-36
2021/09/16 03:56:12;;;;;;;;;;;;;;;23.24;49.73;101006.28;5051657;28;1608;-36
2021/09/16 03:58:47;;;;;;;;;;;;;;;23.30;49.82;101015.56;5051433;28;1331;-37
2021/09/16 04:01:14;;;;;;;;;;;;;;;23.41;50.22;101013.44;5043275;28;1712;-37
2021/09/16 04:03:44;;;;;;;;;;;;;;;23.40;50.24;100995.56;5052149;28;1229;-36
2021/09/16 04:06:11;;;;;;;;;;;;;;;23.48;50.66;101019.06;5048275;28;2708;-37
2021/09/16 04:08:38;;;;;;;;;;;;;;;23.41;50.04;101010.75;5047384;28;2278;-36
2021/09/16 04:11:07;;;;;;;;;;;;;;;23.31;49.83;101006.47;5022109;28;10938;-36
2021/09/16 04:13:35;;;;;;;;;;;;;;;23.30;50.26;101004.75;5052028;28;1938;-37
2021/09/16 04:16:04;;;;;;;;;;;;;;;23.31;51.99;101017.28;5046587;28;2554;-37
2021/09/16 04:18:40;;;;;;;;;;;;;;;23.16;52.29;101017.84;5046874;28;2726;-36
2021/09/16 04:21:06;;;;;;;;;;;;;;;23.15;51.04;101010.75;5048161;28;1733;-37
2021/09/16 04:23:34;;;;;;;;;;;;;;;23.20;50.70;101026.47;5050132;28;1488;-36
2021/09/16 04:26:03;;;;;;;;;;;;;;;23.20;51.01;101010.28;5051235;28;1571;-36
2021/09/16 04:28:33;;;;;;;;;;;;;;;23.29;50.66;101019.28;5051116;28;1508;-36
2021/09/16 04:31:00;;;;;;;;;;;;;;;23.33;50.75;101016.09;5050721;28;1969;-36
2021/09/16 04:33:31;;;;;;;;;;;;;;;23.19;50.92;101013.97;5051609;28;1143;-36
2021/09/16 04:36:00;;;;;;;;;;;;;;;23.19;50.83;101011.28;5054681;28;1886;-36
2021/09/16 04:38:27;;;;;;;;;;;;;;;23.16;50.94;101012.44;5051273;28;1814;-36
2021/09/16 04:40:55;;;;;;;;;;;;;;;23.22;50.80;101033.41;5051646;28;1658;-37
2021/09/16 04:43:23;;;;;;;;;;;;;;;23.27;51.08;101032.09;5051597;28;1277;-36
2021/09/16 04:45:49;;;;;;;;;;;;;;;23.28;52.31;101028.38;5051519;28;1789;-36
2021/09/16 04:48:16;;;;;;;;;;;;;;;23.37;51.64;101022.88;5051376;28;1756;-37
2021/09/16 04:50:48;;;;;;;;;;;;;;;23.34;52.70;101039.41;5050668;28;1422;-37
2021/09/16 04:53:15;;;;;;;;;;;;;;;23.35;52.42;101035.69;5050795;28;1906;-37
2021/09/16 04:55:44;;;;;;;;;;;;;;;23.32;51.78;101049.50;5052040;28;1706;-37
2021/09/16 04:58:11;;;;;;;;;;;;;;;23.30;53.42;101043.41;5050646;28;1949;-37
2021/09/16 05:00:41;;;;;;;;;;;;;;;23.31;51.82;101028.91;5050914;28;1334;-37
2021/09/16 05:03:11;;;;;;;;;;;;;;;23.37;52.35;101041.75;5051628;28;1470;-37
2021/09/16 05:05:52;;;;;;;;;;;;;;;23.39;51.00;101038.91;5052869;28;1587;-37
2021/09/16 05:08:26;;;;;;;;;;;;;;;23.41;51.23;101040.44;5050019;28;1770;-38
2021/09/16 05:11:01;;;;;;;;;;;;;;;23.39;51.15;101041.63;5051140;28;1597;-37
2021/09/16 05:13:27;;;;;;;;;;;;;;;23.37;51.59;101033.66;5047546;28;1906;-38
2021/09/16 05:15:54;;;;;;;;;;;;;;;23.41;51.16;101040.44;5054389;28;1983;-36
2021/09/16 05:18:24;;;;;;;;;;;;;;;23.43;51.75;101038.44;5054586;28;1876;-38
2021/09/16 05:20:50;;;;;;;;;;;;;;;23.45;51.28;101037.44;5049066;28;2045;-37
2021/09/16 05:23:19;;;;;;;;;;;;;;;23.49;51.59;101039.66;5054087;28;1623;-37
2021/09/16 05:25:54;;;;;;;;;;;;;;;23.52;51.21;101036.66;5054575;28;1756;-37
2021/09/16 05:28:22;;;;;;;;;;;;;;;23.65;51.28;101030.81;5052733;28;1795;-37
2021/09/16 05:30:52;;;;;;;;;;;;;;;23.72;51.92;101037.28;5055291;28;1816;-37
2021/09/16 05:33:18;;;;;;;;;;;;;;;23.72;51.44;101031.03;5049356;28;1902;-37
2021/09/16 05:35:46;;;;;;;;;;;;;;;23.66;51.81;101043.31;5043144;28;1933;-37
2021/09/16 05:38:22;;;;;;;;;;;;;;;23.63;52.57;101031.00;5045934;28;1527;-37
2021/09/16 05:40:50;;;;;;;;;;;;;;;23.55;52.48;101036.31;5043145;28;1280;-37
2021/09/16 05:43:16;;;;;;;;;;;;;;;23.57;53.03;101044.25;5042228;28;1694;-37
2021/09/16 05:45:52;;;;;;;;;;;;;;;23.51;52.03;101040.34;5045879;28;1494;-37
2021/09/16 05:48:23;;;;;;;;;;;;;;;23.58;53.99;101046.81;5042932;28;1525;-37
2021/09/16 05:50:53;;;;;;;;;;;;;;;23.56;53.19;101047.97;5046187;28;1334;-37
2021/09/16 05:56:13;;;;;;;;;;;;;;;23.68;52.30;101044.00;5039102;28;2510;-37
2021/09/16 05:58:42;;;;;;;;;;;;;;;23.67;52.45;101049.56;5051490;28;1516;-37
2021/09/16 06:01:09;;;;;;;;;;;;;;;23.67;52.17;101049.56;5052585;28;1798;-37
2021/09/16 06:03:40;;;;;;;;;;;;;;;23.81;52.23;101055.25;5054403;28;1135;-37
2021/09/16 06:06:14;;;;;;;;;;;;;;;23.81;52.03;101057.97;5053732;28;1840;-37
2021/09/16 06:08:43;;;;;;;;;;;;;;;23.81;51.70;101040.88;5050283;28;1904;-37
2021/09/16 06:11:13;;;;;;;;;;;;;;;23.91;51.58;101052.41;5053337;28;1789;-37
2021/09/16 06:13:42;;;;;;;;;;;;;;;23.88;51.70;101038.41;5033930;28;1970;-38
2021/09/16 06:16:12;;;;;;;;;;;;;;;23.97;52.04;101040.13;5050976;28;1479;-38
2021/09/16 06:18:39;;;;;;;;;;;;;;;24.04;52.10;101038.47;5052951;28;1838;-38
2021/09/16 06:21:09;;;;;;;;;;;;;;;24.18;51.73;101035.16;5030469;28;1828;-37
2021/09/16 06:23:39;;;;;;;;;;;;;;;24.25;51.57;101031.78;5048465;28;1557;-37
2021/09/16 06:26:08;;;;;;;;;;;;;;;24.24;51.94;101030.13;5052851;28;1502;-37
2021/09/16 06:28:40;;;;;;;;;;;;;;;24.28;52.20;101020.66;5053245;28;1757;-38
2021/09/16 06:31:10;;;;;;;;;;;;;;;24.27;53.21;101027.06;5053054;28;1582;-37
2021/09/16 06:36:19;;;;;;;;;;;;;;;24.34;55.00;101030.81;5043827;28;1925;-37
2021/09/16 06:38:48;;;;;;;;;;;;;;;24.27;54.98;101041.41;5042698;28;1702;-38
2021/09/16 06:41:15;;;;;;;;;;;;;;;24.30;55.06;101048.38;5045407;28;1526;-37
2021/09/16 06:43:42;;;;;;;;;;;;;;;24.32;55.01;101038.25;5051287;28;1503;-37
2021/09/16 06:46:11;;;;;;;;;;;;;;;24.31;55.43;101034.69;5044358;28;1540;-37
2021/09/16 06:48:38;;;;;;;;;;;;;;;24.31;55.50;101040.09;5041764;28;1907;-38
2021/09/16 06:51:06;;;;;;;;;;;;;;;24.27;55.25;101030.59;5048163;28;1402;-37
2021/09/16 06:53:34;;;;;;;;;;;;;;;24.24;55.19;101041.75;5052269;28;1902;-36
2021/09/16 06:56:10;;;;;;;;;;;;;;;24.21;55.02;101033.97;5043534;28;1824;-37
2021/09/16 06:58:38;;;;;;;;;;;;;;;24.25;55.25;101046.13;5045653;28;1594;-38
2021/09/16 07:01:08;;;;;;;;;;;;;;;24.30;54.48;101046.50;5047146;28;1777;-37
2021/09/16 07:03:37;;;;;;;;;;;;;;;24.33;54.53;101019.16;5050786;28;1668;-37
2021/09/16 07:06:06;;;;;;;;;;;;;;;24.36;54.94;101036.91;5049929;28;1608;-37
2021/09/16 07:08:36;;;;;;;;;;;;;;;24.38;54.50;101043.00;5052993;28;1818;-37
2021/09/16 07:13:45;;;;;;;;;;;;;;;24.36;54.24;101034.19;5051525;28;2321;-37
2021/09/16 07:16:16;;;;;;;;;;;;;;;24.39;53.92;101023.03;5053647;28;989;-38
2021/09/16 07:18:44;;;;;;;;;;;;;;;24.45;54.11;101035.06;5053758;28;1037;-37
2021/09/16 07:21:13;;;;;;;;;;;;;;;24.44;53.20;101033.38;5053762;28;1658;-37
2021/09/16 07:23:40;;;;;;;;;;;;;;;24.44;53.03;101028.81;5049100;28;2012;-37
2021/09/16 07:26:10;;;;;;;;;;;;;;;24.54;52.50;101029.53;5048839;28;2151;-38
2021/09/16 07:28:38;;;;;;;;;;;;;;;24.61;53.34;101022.47;5044204;28;1904;-37
2021/09/16 07:31:07;;;;;;;;;;;;;;;24.64;52.99;101026.69;5051144;28;1438;-37
2021/09/16 07:33:47;;;;;;;;;;;;;;;24.74;53.09;101034.66;5043600;28;1899;-37
2021/09/16 07:36:14;;;;;;;;;;;;;;;24.72;53.15;101028.56;5049562;28;1667;-37
2021/09/16 07:38:43;;;;;;;;;;;;;;;24.81;52.70;101035.69;5051551;28;1792;-37
2021/09/16 07:41:11;;;;;;;;;;;;;;;24.77;52.09;101027.06;5039377;28;1776;-37
2021/09/16 07:43:38;;;;;;;;;;;;;;;24.73;53.28;101025.69;5046885;28;2156;-37
2021/09/16 07:46:04;;;;;;;;;;;;;;;24.61;53.67;101027.00;5052745;28;1467;-37
2021/09/16 07:48:32;;;;;;;;;;;;;;;24.73;53.57;101024.81;5052185;28;1661;-37
2021/09/16 07:50:59;;;;;;;;;;;;;;;24.74;53.26;101023.81;5052154;28;1922;-37
2021/09/16 07:53:30;;;;;;;;;;;;;;;24.83;52.86;101036.34;5052131;28;1906;-37
2021/09/16 07:55:59;;;;;;;;;;;;;;;24.86;54.60;101022.47;5051707;28;1658;-37
2021/09/16 07:58:38;;;;;;;;;;;;;;;24.85;53.57;101023.50;5053239;28;1790;-41
2021/09/16 08:01:05;;;;;;;;;;;;;;;24.93;53.07;101014.53;5051263;28;1702;-41
2021/09/16 08:03:33;;;;;;;;;;;;;;;24.89;53.39;101014.03;5052219;28;1455;-41
2021/09/16 08:06:05;;;;;;;;;;;;;;;24.97;52.11;101011.34;5048676;28;1554;-41
2021/09/16 08:08:33;;;;;;;;;;;;;;;24.41;54.16;101021.03;5051770;28;1840;-53
2021/09/16 08:11:01;;;;;;;;;;;;;;;24.17;54.57;101033.47;5033002;28;1563;-51
2021/09/16 08:13:28;;;;;;;;;;;;;;;24.17;54.23;101029.91;5047251;28;1973;-51
2021/09/16 08:15:55;;;;;;;;;;;;;;;24.13;53.83;101024.00;5041307;28;2030;-51
2021/09/16 08:18:26;;;;;;;;;;;;;;;24.14;53.98;101028.38;5049829;28;1645;-50
2021/09/16 08:20:54;;;;;;;;;;;;;;;24.14;53.47;101028.38;5047716;28;1629;-49
2021/09/16 08:23:29;;;;;;;;;;;;;;;24.15;54.13;101021.13;5050235;28;1536;-49
2021/09/16 08:25:58;;;;;;;;;;;;;;;24.20;54.62;101011.50;5041383;28;1823;-49
2021/09/16 08:28:25;;;;;;;;;;;;;;;24.21;54.58;101031.25;5047298;28;1832;-49
2021/09/16 08:30:53;;;;;;;;;;;;;;;24.29;53.89;101022.34;5046276;28;1802;-49
2021/09/16 08:33:20;;;;;;;;;;;;;;;24.19;53.97;101007.13;5050910;28;1930;-49
2021/09/16 08:35:50;;;;;;;;;;;;;;;24.20;54.53;101027.72;5048036;28;2001;-49
2021/09/16 08:38:17;;;;;;;;;;;;;;;24.18;54.46;101021.63;5046316;28;1770;-49
2021/09/16 08:40:48;;;;;;;;;;;;;;;24.21;54.49;101028.56;5047120;28;1784;-49
2021/09/16 08:43:16;;;;;;;;;;;;;;;24.18;54.23;101013.53;5046354;28;1797;-49
2021/09/16 08:45:44;;;;;;;;;;;;;;;24.22;53.92;101009.50;5053831;28;1590;-51
2021/09/16 08:48:12;;;;;;;;;;;;;;;24.25;54.06;101020.97;5044909;28;1690;-49
2021/09/16 08:50:42;;;;;;;;;;;;;;;24.26;54.19;101012.72;5050804;28;1666;-49
2021/09/16 08:53:17;;;;;;;;;;;;;;;24.24;54.24;101020.16;5048273;28;1898;-49
2021/09/16 08:55:58;;;;;;;;;;;;;;;24.26;54.45;101022.69;5045657;28;1515;-49
2021/09/16 08:58:26;;;;;;;;;;;;;;;24.30;53.96;101007.84;5045576;28;1426;-49
2021/09/16 09:00:54;;;;;;;;;;;;;;;24.29;53.19;101019.63;5044412;28;1555;-50
2021/09/16 09:03:24;;;;;;;;;;;;;;;24.30;53.15;101010.53;5043952;28;1858;-49
2021/09/16 09:05:53;;;;;;;;;;;;;;;24.30;53.57;101003.28;5050450;28;1618;-49
2021/09/16 09:08:27;;;;;;;;;;;;;;;24.39;53.18;100990.59;5056045;28;1642;-49
2021/09/16 09:10:58;;;;;;;;;;;;;;;24.45;52.63;101000.75;5055541;28;1859;-49
2021/09/16 09:13:34;;;;;;;;;;;;;;;24.52;53.04;101009.94;5057532;28;1901;-49
2021/09/16 09:16:02;;;;;;;;;;;;;;;24.46;52.35;100991.66;5054405;28;1362;-49
2021/09/16 09:18:48;;;;;;;;;;;;;;;24.38;53.25;100989.75;5055680;28;1865;-49
2021/09/16 09:21:15;;;;;;;;;;;;;;;24.32;53.92;101000.41;5055352;28;2061;-48
2021/09/16 09:23:45;;;;;;;;;;;;;;;24.32;52.92;101000.41;5053417;28;1829;-49
2021/09/16 09:26:32;;;;;;;;;;;;;;;24.34;53.45;100987.56;5051237;28;1708;-49
2021/09/16 09:29:14;;;;;;;;;;;;;;;24.34;53.22;100987.56;5051355;28;1716;-49
2021/09/16 09:31:46;;;;;;;;;;;;;;;24.36;53.26;100975.56;5051968;28;1663;-48
2021/09/16 09:34:32;;;;;;;;;;;;;;;24.39;52.96;100980.66;5053412;28;1974;-49
2021/09/16 09:37:27;;;;;;;;;;;;;;;24.39;52.47;100982.50;5050228;28;1357;-49
2021/09/16 09:40:04;;;;;;;;;;;;;;;24.38;52.57;100968.16;5044407;28;1309;-48
2021/09/16 09:42:33;;;;;;;;;;;;;;;24.46;52.86;100986.25;5047753;28;1649;-49
2021/09/16 09:45:08;;;;;;;;;;;;;;;24.46;53.52;100980.84;5055339;28;1483;-49
2021/09/16 09:47:35;;;;;;;;;;;;;;;24.45;53.04;100973.72;5055175;28;1527;-49
2021/09/16 09:50:02;;;;;;;;;;;;;;;24.47;53.27;100981.66;5054707;28;1676;-49
2021/09/16 09:52:32;;;;;;;;;;;;;;;24.41;52.46;100970.53;5055374;28;1085;-49
2021/09/16 09:55:01;;;;;;;;;;;;;;;24.43;51.98;100964.94;5051429;28;1902;-49
2021/09/16 09:57:28;;;;;;;;;;;;;;;24.44;51.52;100972.03;5055503;28;1863;-49
2021/09/16 10:00:04;;;;;;;;;;;;;;;24.56;51.28;100959.91;5053806;28;1494;-49
2021/09/16 10:02:35;;;;;;;;;;;;;;;24.49;50.92;100961.59;5048379;28;1494;-48
2021/09/16 10:05:11;;;;;;;;;;;;;;;24.44;51.48;100961.22;5054734;28;1613;-49
2021/09/16 10:07:40;;;;;;;;;;;;;;;24.53;50.28;100959.41;5035471;28;1815;-49
2021/09/16 10:10:09;;;;;;;;;;;;;;;24.55;50.59;100958.25;5047678;28;1793;-49
2021/09/16 10:12:35;;;;;;;;;;;;;;;24.57;50.70;100950.81;5055301;28;1570;-49
2021/09/16 10:15:22;;;;;;;;;;;;;;;24.63;50.41;100948.44;5054636;28;1977;-48
2021/09/16 10:17:59;;;;;;;;;;;;;;;24.57;50.04;100949.94;5053753;28;1600;-49
2021/09/16 10:20:27;;;;;;;;;;;;;;;24.59;49.98;100953.31;5048359;28;1563;-49
2021/09/16 10:22:54;;;;;;;;;;;;;;;24.59;49.09;100954.19;5052462;28;1560;-49
2021/09/16 10:25:30;;;;;;;;;;;;;;;24.64;48.57;100950.13;5051124;28;1728;-49
2021/09/16 10:27:57;;;;;;;;;;;;;;;24.58;48.79;100947.06;5054523;28;1566;-50
2021/09/16 10:30:43;;;;;;;;;;;;;;;24.58;49.33;100935.44;5052473;28;1679;-49
2021/09/16 10:33:39;;;;;;;;;;;;;;;24.58;49.67;100935.44;5036789;28;1973;-49
2021/09/16 10:36:16;;;;;;;;;;;;;;;24.56;47.75;100938.28;5049762;28;1443;-48
2021/09/16 10:38:46;;;;;;;;;;;;;;;24.60;48.50;100938.81;5050703;28;1822;-49
2021/09/16 10:41:28;;;;;;;;;;;;;;;24.57;49.04;100918.38;5055905;28;1638;-49
2021/09/16 10:44:14;;;;;;;;;;;;;;;24.60;47.87;100934.22;5053864;28;1797;-49
2021/09/16 10:46:41;;;;;;;;;;;;;;;24.69;46.98;100918.00;5050679;28;1508;-49
2021/09/16 10:49:28;;;;;;;;;;;;;;;24.63;48.39;100918.69;5054746;28;1510;-49
2021/09/16 10:52:17;;;;;;;;;;;;;;;24.63;47.74;100916.84;5047935;28;2824;-49
2021/09/16 10:54:47;;;;;;;;;;;;;;;24.62;48.22;100923.25;5052467;28;1913;-49
2021/09/16 10:57:16;;;;;;;;;;;;;;;24.59;48.77;100910.06;5054311;28;1603;-49
2021/09/16 11:00:02;;;;;;;;;;;;;;;24.56;48.47;100905.84;5053760;28;1421;-49
2021/09/16 11:02:48;;;;;;;;;;;;;;;24.59;47.80;100920.88;5040648;28;1919;-49
2021/09/16 11:05:23;;;;;;;;;;;;;;;24.56;49.26;100913.13;5050043;28;1729;-49
2021/09/16 11:07:56;;;;;;;;;;;;;;;24.63;48.25;100911.44;5043097;28;1999;-48
2021/09/16 11:10:42;;;;;;;;;;;;;;;24.74;47.11;100904.84;5042107;28;1750;-49
2021/09/16 11:13:25;;;;;;;;;;;;;;;24.75;46.45;100904.66;5025768;28;2106;-50
2021/09/16 11:15:53;;;;;;;;;;;;;;;24.48;48.33;100922.03;5047790;28;1979;-50
2021/09/16 11:18:21;;;;;;;;;;;;;;;24.60;47.85;100907.19;5045879;28;1648;-49
2021/09/16 11:20:49;;;;;;;;;;;;;;;24.75;46.53;100903.81;5041472;28;1587;-49
2021/09/16 11:23:18;;;;;;;;;;;;;;;24.81;46.62;100912.09;5041160;28;1392;-50
2021/09/16 11:25:48;;;;;;;;;;;;;;;24.83;46.95;100902.94;5044438;28;1738;-49
2021/09/16 11:28:18;;;;;;;;;;;;;;;24.77;48.42;100890.94;5044621;28;1606;-49
2021/09/16 11:30:48;;;;;;;;;;;;;;;24.64;48.86;100891.47;5039441;28;1651;-49
2021/09/16 11:33:17;;;;;;;;;;;;;;;24.64;49.10;100890.66;5039016;28;1969;-49
2021/09/16 11:38:44;;;;;;;;;;;;;;;24.64;48.23;100896.88;5046393;28;2418;-49
2021/09/16 11:41:15;;;;;;;;;;;;;;;24.68;48.43;100881.19;5043117;28;1462;-49
2021/09/16 11:43:46;;;;;;;;;;;;;;;24.79;47.47;100878.13;5038577;28;1579;-49
2021/09/16 11:46:18;;;;;;;;;;;;;;;24.79;46.96;100884.38;5040913;28;1248;-49
2021/09/16 11:48:45;;;;;;;;;;;;;;;24.75;47.24;100888.44;5040001;28;1678;-49
2021/09/16 11:51:13;;;;;;;;;;;;;;;24.75;47.58;100884.88;5047908;28;1566;-49
2021/09/16 11:53:41;;;;;;;;;;;;;;;24.69;47.33;100888.25;5042632;28;1977;-49
2021/09/16 11:56:12;;;;;;;;;;;;;;;24.69;47.51;100888.25;5047423;28;1474;-49
2021/09/16 11:58:40;;;;;;;;;;;;;;;24.71;47.01;100873.56;5042455;28;1479;-49
2021/09/16 12:01:10;;;;;;;;;;;;;;;24.70;46.69;100865.63;5039020;28;1616;-49
2021/09/16 12:03:46;;;;;;;;;;;;;;;24.61;47.12;100860.22;5043113;28;1559;-49
2021/09/16 12:06:15;;;;;;;;;;;;;;;24.57;47.64;100852.59;5042627;28;1484;-49
2021/09/16 12:08:46;;;;;;;;;;;;;;;24.57;48.18;100861.59;5045163;28;1357;-49
2021/09/16 12:11:13;;;;;;;;;;;;;;;24.58;48.20;100851.59;5043892;28;1532;-49
2021/09/16 12:13:45;;;;;;;;;;;;;;;24.56;47.19;100857.19;5048011;28;1975;-49
2021/09/16 12:16:13;;;;;;;;;;;;;;;24.56;48.49;100849.06;5046587;28;1492;-49
2021/09/16 12:18:41;;;;;;;;;;;;;;;24.57;47.96;100853.47;5048756;28;2168;-49
2021/09/16 12:21:20;;;;;;;;;;;;;;;24.60;48.00;100853.13;5046309;28;1655;-49
2021/09/16 12:23:53;;;;;;;;;;;;;;;24.63;47.66;100845.69;5046545;28;1369;-49
2021/09/16 12:26:28;;;;;;;;;;;;;;;24.68;47.41;100835.22;5047388;28;1621;-49
2021/09/16 12:28:56;;;;;;;;;;;;;;;24.59;47.98;100824.41;5046048;28;1478;-48
2021/09/16 12:31:44;;;;;;;;;;;;;;;24.58;47.81;100819.16;5042993;28;1570;-49
2021/09/16 12:34:13;;;;;;;;;;;;;;;24.54;47.35;100824.06;5046114;28;1914;-49
2021/09/16 12:36:55;;;;;;;;;;;;;;;24.57;47.50;100823.72;5045426;28;1588;-49
2021/09/16 12:39:53;;;;;;;;;;;;;;;24.61;46.89;100822.38;5045910;28;1358;-49
2021/09/16 12:42:26;;;;;;;;;;;;;;;24.61;47.66;100830.50;5044389;28;1485;-49
2021/09/16 12:45:01;;;;;;;;;;;;;;;24.58;47.59;100817.28;5047704;28;1528;-49
2021/09/16 12:47:28;;;;;;;;;;;;;;;24.59;47.40;100801.91;5048031;28;1557;-49
2021/09/16 12:49:59;;;;;;;;;;;;;;;24.60;47.79;100795.50;5055910;28;1557;-49
2021/09/16 12:52:27;;;;;;;;;;;;;;;24.59;47.88;100796.50;5056089;28;1642;-49
2021/09/16 12:55:03;;;;;;;;;;;;;;;24.60;48.23;100801.75;5055256;28;1910;-49
2021/09/16 12:57:34;;;;;;;;;;;;;;;24.58;47.62;100801.06;5053633;28;1698;-49
2021/09/16 13:00:02;;;;;;;;;;;;;;;24.53;48.27;100798.06;5053839;28;1342;-49
2021/09/16 13:02:31;;;;;;;;;;;;;;;24.54;47.97;100794.31;5055620;28;1367;-48
2021/09/16 13:05:02;;;;;;;;;;;;;;;24.54;47.87;100799.72;5054355;28;1836;-49
2021/09/16 13:07:30;;;;;;;;;;;;;;;24.52;47.82;100796.34;5055905;28;1718;-49
2021/09/16 13:10:23;;;;;;;;;;;;;;;24.50;47.51;100782.16;5056842;28;1720;-49
2021/09/16 13:12:54;;;;;;;;;;;;;;;24.51;47.48;100786.56;5046733;28;1703;-48
2021/09/16 13:15:21;;;;;;;;;;;;;;;24.47;46.53;100776.22;5059552;28;2030;-49
2021/09/16 13:17:51;;;;;;;;;;;;;;;24.49;47.42;100783.16;5055688;28;1568;-49
2021/09/16 13:20:19;;;;;;;;;;;;;;;24.50;47.02;100786.72;5055461;28;1612;-48
2021/09/16 13:22:45;;;;;;;;;;;;;;;24.50;47.57;100778.59;5056550;28;1424;-49